Time,TemperatureF,DewpointF,PressureIn,WindDirection,WindDirectionDegrees,WindSpeedMPH,WindSpeedGustMPH,Humidity,HourlyPrecipIn,Conditions,Clouds,dailyrainin,SoftwareType,DateUTC
2013-10-30 00:11:00,30.0,29.0,29.99,ENE,78,0.0,0.0,98,0.00,,,0.01,,2013-10-30 07:11:00,
2013-10-30 00:21:00,29.0,29.0,29.99,ENE,78,0.0,0.0,98,0.00,,,0.01,,2013-10-30 07:21:00,
2013-10-30 00:42:00,29.0,29.0,29.99,East,79,0.0,1.0,99,0.00,,,0.01,,2013-10-30 07:42:00,
2013-10-30 00:52:00,30.0,30.0,29.99,East,79,0.0,0.0,99,0.00,,,0.01,,2013-10-30 07:52:00,
2013-10-30 01:11:00,29.0,29.0,30.00,East,79,0.0,0.0,98,0.00,,,0.01,,2013-10-30 08:11:00,
2013-10-30 01:21:00,29.0,29.0,30.00,East,79,0.0,0.0,99,0.00,,,0.01,,2013-10-30 08:21:00,
2013-10-30 01:42:00,29.0,29.0,30.00,East,79,0.0,0.0,99,0.00,,,0.01,,2013-10-30 08:42:00,
2013-10-30 01:52:00,29.0,29.0,30.00,East,79,0.0,0.0,99,0.00,,,0.01,,2013-10-30 08:52:00,
2013-10-30 02:11:00,28.0,28.0,30.01,East,79,0.0,0.0,99,0.00,,,0.01,,2013-10-30 09:11:00,
2013-10-30 02:21:00,29.0,29.0,30.01,East,79,0.0,0.0,99,0.00,,,0.01,,2013-10-30 09:21:00,
2013-10-30 02:42:00,28.0,28.0,30.01,East,79,0.0,0.0,99,0.00,,,0.01,,2013-10-30 09:42:00,
2013-10-30 02:54:00,28.0,28.0,30.01,East,79,0.0,0.0,99,0.00,,,0.01,,2013-10-30 09:54:00,
2013-10-30 03:12:00,29.0,29.0,30.02,East,79,0.0,0.0,99,0.00,,,0.01,,2013-10-30 10:12:00,
2013-10-30 03:23:00,29.0,29.0,30.02,East,79,0.0,0.0,99,0.00,,,0.01,,2013-10-30 10:23:00,
2013-10-30 03:43:00,28.0,28.0,30.02,East,79,0.0,0.0,99,0.00,,,0.01,,2013-10-30 10:43:00,
2013-10-30 03:53:00,28.0,28.0,30.02,East,79,0.0,0.0,99,0.00,,,0.01,,2013-10-30 10:53:00,
2013-10-30 04:11:00,28.0,28.0,30.03,ENE,71,1.0,1.0,99,0.00,,,0.01,,2013-10-30 11:11:00,
2013-10-30 04:22:00,29.0,29.0,30.03,ENE,68,0.0,0.0,99,0.00,,,0.01,,2013-10-30 11:22:00,
2013-10-30 04:42:00,28.0,28.0,30.03,ENE,68,0.0,0.0,99,0.00,,,0.01,,2013-10-30 11:42:00,
2013-10-30 04:52:00,28.0,28.0,30.03,ENE,68,0.0,0.0,99,0.00,,,0.01,,2013-10-30 11:52:00,
2013-10-30 05:12:00,28.0,28.0,30.03,ENE,70,0.0,0.0,99,0.00,,,0.01,,2013-10-30 12:12:00,
2013-10-30 05:22:00,28.0,28.0,30.04,ENE,70,0.0,0.0,99,0.00,,,0.01,,2013-10-30 12:22:00,
2013-10-30 05:42:00,28.0,28.0,30.04,ENE,70,0.0,0.0,99,0.00,,,0.01,,2013-10-30 12:42:00,
2013-10-30 05:52:00,28.0,28.0,30.04,ENE,70,0.0,0.0,99,0.00,,,0.01,,2013-10-30 12:52:00,
2013-10-30 06:11:00,27.0,27.0,30.05,ENE,70,0.0,0.0,100,0.00,,,0.01,,2013-10-30 13:11:00,
2013-10-30 09:12:00,30.0,30.0,30.08,ENE,76,0.0,0.0,100,0.00,,,0.01,,2013-10-30 16:12:00,
2013-10-30 09:23:00,30.0,30.0,30.09,ENE,75,0.0,0.0,100,0.00,,,0.01,,2013-10-30 16:23:00,
2013-10-30 09:42:00,30.0,30.0,30.09,ENE,75,0.0,0.0,99,0.00,,,0.01,,2013-10-30 16:42:00,
2013-10-30 09:53:00,32.0,32.0,30.09,ENE,75,0.0,0.0,100,0.00,,,0.01,,2013-10-30 16:53:00,
2013-10-30 10:12:00,35.0,35.0,30.10,ENE,75,0.0,0.0,100,0.00,,,0.01,,2013-10-30 17:12:00,
2013-10-30 10:22:00,40.0,40.0,30.10,ENE,75,0.0,0.0,100,0.00,,,0.01,,2013-10-30 17:22:00,
2013-10-30 10:42:00,41.0,41.0,30.10,ENE,75,0.0,0.0,100,0.00,,,0.01,,2013-10-30 17:42:00,
2013-10-30 10:52:00,41.0,41.0,30.10,West,269,0.0,1.0,99,0.00,,,0.01,,2013-10-30 17:52:00,
2013-10-30 11:12:00,42.0,42.0,30.09,West,266,0.0,0.0,99,0.00,,,0.01,,2013-10-30 18:12:00,
2013-10-30 11:21:00,44.0,44.0,30.11,SSW,194,0.0,0.0,100,0.00,,,0.00,,2013-10-30 18:21:00,
2013-10-30 11:42:00,45.0,45.0,30.10,SSE,160,0.0,0.0,99,0.00,,,0.00,,2013-10-30 18:42:00,
2013-10-30 11:52:00,46.0,45.0,30.10,SW,225,0.0,0.0,95,0.00,,,0.00,,2013-10-30 18:52:00,
2013-10-30 12:11:00,48.0,45.0,30.10,SW,221,0.0,1.0,91,0.00,,,0.00,,2013-10-30 19:11:00,
2013-10-30 12:21:00,50.0,46.0,30.10,South,184,0.0,0.0,87,0.00,,,0.00,,2013-10-30 19:21:00,
2013-10-30 12:52:00,53.0,46.0,30.09,WSW,239,0.0,1.0,77,0.00,,,0.00,,2013-10-30 19:52:00,
2013-10-30 13:11:00,55.0,44.0,30.09,SW,222,0.0,1.0,66,0.00,,,0.00,,2013-10-30 20:11:00,
2013-10-30 13:21:00,56.0,42.0,30.09,SW,226,0.0,2.0,59,0.00,,,0.00,,2013-10-30 20:21:00,
2013-10-30 13:42:00,58.0,40.0,30.09,SE,129,1.0,3.0,52,0.00,,,0.00,,2013-10-30 20:42:00,
2013-10-30 13:52:00,57.0,41.0,30.09,SW,232,1.0,3.0,55,0.00,,,0.00,,2013-10-30 20:52:00,
2013-10-30 14:12:00,58.0,42.0,30.09,SSW,210,1.0,3.0,56,0.00,,,0.00,,2013-10-30 21:12:00,
2013-10-30 14:21:00,58.0,44.0,30.09,WSW,249,1.0,3.0,59,0.00,,,0.00,,2013-10-30 21:21:00,
2013-10-30 14:33:00,58.0,44.0,30.09,WSW,249,1.0,3.0,59,0.00,,,0.00,,2013-10-30 21:33:00,
2013-10-30 14:43:00,58.0,44.0,30.09,WSW,249,1.0,3.0,59,0.00,,,0.00,,2013-10-30 21:43:00,
2013-10-30 14:53:00,58.0,43.0,30.08,ESE,121,0.0,2.0,58,0.00,,,0.00,,2013-10-30 21:53:00,
2013-10-30 15:13:00,58.0,42.0,30.08,SSW,194,0.0,2.0,56,0.00,,,0.00,,2013-10-30 22:13:00,
2013-10-30 15:23:00,58.0,42.0,30.08,SE,132,0.0,1.0,55,0.00,,,0.00,,2013-10-30 22:23:00,
2013-10-30 15:43:00,58.0,42.0,30.09,ESE,122,0.0,2.0,55,0.00,,,0.00,,2013-10-30 22:43:00,
2013-10-30 15:54:00,57.0,42.0,30.08,SSE,160,0.0,2.0,58,0.00,,,0.00,,2013-10-30 22:54:00,
2013-10-30 16:12:00,56.0,42.0,30.08,South,191,0.0,2.0,60,0.00,,,0.00,,2013-10-30 23:12:00,
2013-10-30 16:22:00,55.0,42.0,30.08,South,188,0.0,2.0,62,0.00,,,0.00,,2013-10-30 23:22:00,
2013-10-30 16:42:00,55.0,42.0,30.09,SSE,148,1.0,2.0,62,0.00,,,0.00,,2013-10-30 23:42:00,
2013-10-30 16:53:00,54.0,42.0,30.08,SSE,160,0.0,2.0,63,0.00,,,0.00,,2013-10-30 23:53:00,
2013-10-30 17:11:00,54.0,43.0,30.08,SSE,160,1.0,1.0,65,0.00,,,0.00,,2013-10-31 00:11:00,
2013-10-30 17:21:00,54.0,43.0,30.08,SE,134,0.0,1.0,67,0.00,,,0.00,,2013-10-31 00:21:00,
2013-10-30 19:21:00,45.0,43.0,30.10,ESE,108,0.0,0.0,93,0.00,,,0.00,,2013-10-31 02:21:00,
2013-10-30 20:11:00,45.0,43.0,30.10,ESE,108,0.0,0.0,94,0.00,,,0.00,,2013-10-31 03:11:00,
2013-10-30 20:22:00,45.0,44.0,30.09,ESE,107,0.0,0.0,95,0.00,,,0.00,,2013-10-31 03:22:00,
2013-10-30 20:44:00,46.0,45.0,30.10,WSW,238,0.0,0.0,95,0.00,,,0.00,,2013-10-31 03:44:00,
2013-10-30 20:55:00,46.0,45.0,30.10,WSW,238,0.0,0.0,95,0.00,,,0.00,,2013-10-31 03:55:00,
2013-10-30 21:14:00,46.0,45.0,30.10,SE,134,0.0,0.0,95,0.00,,,0.00,,2013-10-31 04:14:00,
2013-10-30 21:23:00,46.0,45.0,30.10,SE,136,0.0,0.0,96,0.00,,,0.00,,2013-10-31 04:23:00,
2013-10-30 21:43:00,46.0,45.0,30.11,SE,134,0.0,0.0,96,0.00,,,0.00,,2013-10-31 04:43:00,
2013-10-30 21:54:00,46.0,45.0,30.10,ENE,72,0.0,1.0,96,0.00,,,0.00,,2013-10-31 04:54:00,
2013-10-30 22:13:00,46.0,45.0,30.10,ENE,72,0.0,1.0,96,0.00,,,0.00,,2013-10-31 05:13:00,
2013-10-30 22:22:00,46.0,45.0,30.10,East,83,0.0,0.0,96,0.00,,,0.00,,2013-10-31 05:22:00,
2013-10-30 22:43:00,46.0,45.0,30.10,East,82,0.0,0.0,97,0.00,,,0.00,,2013-10-31 05:43:00,
2013-10-30 22:52:00,46.0,45.0,30.10,East,82,0.0,0.0,97,0.00,,,0.00,,2013-10-31 05:52:00,
2013-10-30 23:12:00,46.0,45.0,30.10,East,83,0.0,0.0,97,0.00,,,0.00,,2013-10-31 06:12:00,
2013-10-30 23:21:00,46.0,45.0,30.10,East,82,0.0,0.0,98,0.00,,,0.00,,2013-10-31 06:21:00,
2013-10-30 23:42:00,46.0,45.0,30.09,East,82,0.0,0.0,98,0.00,,,0.00,,2013-10-31 06:42:00,
2013-10-30 23:53:00,46.0,45.0,30.10,East,82,0.0,0.0,98,0.00,,,0.00,,2013-10-31 06:53:00,